sensor_id;sensor_type;location;lat;lon;timestamp;pressure;altitude;pressure_sealevel;temperature;humidity
69766;BME280;57039;48.014;21.384;2024-03-23T00:54:55;100260.34;;;7.31;100.00
69766;BME280;57039;48.014;21.384;2024-03-23T00:55:56;100264.72;;;7.31;100.00
69766;BME280;57039;48.014;21.384;2024-03-23T00:56:58;100264.72;;;7.31;100.00
69766;BME280;57039;48.014;21.384;2024-03-23T00:58:00;100262.03;;;7.32;100.00
69766;BME280;57039;48.014;21.384;2024-03-23T00:59:03;100261.28;;;7.30;100.00
69766;BME280;57039;48.014;21.384;2024-03-23T01:00:06;100264.63;;;7.32;100.00
69766;BME280;57039;48.014;21.384;2024-03-23T01:01:08;100245.81;;;7.26;100.00
69766;BME280;57039;48.014;21.384;2024-03-23T01:02:10;100243.91;;;7.29;100.00
69766;BME280;57039;48.014;21.384;2024-03-23T01:03:12;100256.12;;;7.29;100.00
69766;BME280;57039;48.014;21.384;2024-03-23T01:04:14;100255.13;;;7.31;100.00
69766;BME280;57039;48.014;21.384;2024-03-23T01:05:16;100244.69;;;7.31;100.00
69766;BME280;57039;48.014;21.384;2024-03-23T01:06:18;100254.50;;;7.26;100.00
69766;BME280;57039;48.014;21.384;2024-03-23T01:07:20;100242.38;;;7.25;100.00
69766;BME280;57039;48.014;21.384;2024-03-23T01:08:22;100248.38;;;7.27;100.00
69766;BME280;57039;48.014;21.384;2024-03-23T01:09:26;100247.44;;;7.28;100.00
69766;BME280;57039;48.014;21.384;2024-03-23T01:10:28;100218.47;;;7.16;100.00
69766;BME280;57039;48.014;21.384;2024-03-23T01:11:30;100249.06;;;7.31;100.00
69766;BME280;57039;48.014;21.384;2024-03-23T01:12:31;100253.44;;;7.30;100.00
69766;BME280;57039;48.014;21.384;2024-03-23T01:13:33;100252.66;;;7.28;100.00
69766;BME280;57039;48.014;21.384;2024-03-23T01:14:35;100258.81;;;7.27;100.00
69766;BME280;57039;48.014;21.384;2024-03-23T01:15:37;100257.03;;;7.28;100.00
69766;BME280;57039;48.014;21.384;2024-03-23T01:16:39;100263.19;;;7.27;100.00
69766;BME280;57039;48.014;21.384;2024-03-23T01:17:41;100253.72;;;7.24;100.00
69766;BME280;57039;48.014;21.384;2024-03-23T01:18:43;100249.22;;;7.28;100.00
69766;BME280;57039;48.014;21.384;2024-03-23T01:19:45;100249.91;;;7.31;100.00
69766;BME280;57039;48.014;21.384;2024-03-23T01:20:47;100252.53;;;7.31;100.00
69766;BME280;57039;48.014;21.384;2024-03-23T01:21:49;100246.47;;;7.31;100.00
69766;BME280;57039;48.014;21.384;2024-03-23T01:22:51;100242.31;;;7.27;100.00
69766;BME280;57039;48.014;21.384;2024-03-23T01:23:52;100239.69;;;7.27;100.00
69766;BME280;57039;48.014;21.384;2024-03-23T01:24:55;100234.50;;;7.27;100.00
69766;BME280;57039;48.014;21.384;2024-03-23T01:25:57;100232.78;;;7.26;100.00
69766;BME280;57039;48.014;21.384;2024-03-23T01:26:58;100244.00;;;7.28;100.00
69766;BME280;57039;48.014;21.384;2024-03-23T01:28:00;100237.09;;;7.27;100.00
69766;BME280;57039;48.014;21.384;2024-03-23T01:29:02;100231.97;;;7.05;100.00
69766;BME280;57039;48.014;21.384;2024-03-23T01:30:05;100238.69;;;7.11;100.00
69766;BME280;57039;48.014;21.384;2024-03-23T01:31:07;100222.66;;;6.99;100.00
69766;BME280;57039;48.014;21.384;2024-03-23T01:32:08;100233.63;;;7.07;100.00
69766;BME280;57039;48.014;21.384;2024-03-23T01:33:10;100235.16;;;7.12;100.00
69766;BME280;57039;48.014;21.384;2024-03-23T01:34:12;100223.97;;;7.09;100.00
69766;BME280;57039;48.014;21.384;2024-03-23T01:35:14;100237.72;;;7.13;100.00
69766;BME280;57039;48.014;21.384;2024-03-23T01:36:16;100241.72;;;7.20;100.00
69766;BME280;57039;48.014;21.384;2024-03-23T01:37:18;100240.87;;;7.20;100.00
69766;BME280;57039;48.014;21.384;2024-03-23T01:38:20;100237.56;;;7.16;100.00
69766;BME280;57039;48.014;21.384;2024-03-23T01:39:22;100234.13;;;7.16;100.00
69766;BME280;57039;48.014;21.384;2024-03-23T01:40:24;100229.03;;;7.13;100.00
69766;BME280;57039;48.014;21.384;2024-03-23T01:41:26;100229.19;;;7.09;100.00
69766;BME280;57039;48.014;21.384;2024-03-23T01:42:28;100229.88;;;7.13;100.00
69766;BME280;57039;48.014;21.384;2024-03-23T01:43:29;100232.53;;;7.12;100.00
69766;BME280;57039;48.014;21.384;2024-03-23T01:44:31;100225.50;;;7.14;100.00
69766;BME280;57039;48.014;21.384;2024-03-23T01:45:34;100227.28;;;7.13;100.00
69766;BME280;57039;48.014;21.384;2024-03-23T01:46:39;100237.75;;;7.12;100.00
69766;BME280;57039;48.014;21.384;2024-03-23T01:47:41;100230.87;;;7.11;100.00
69766;BME280;57039;48.014;21.384;2024-03-23T01:48:43;100231.84;;;7.08;100.00
69766;BME280;57039;48.014;21.384;2024-03-23T01:49:44;100228.25;;;7.11;100.00
69766;BME280;57039;48.014;21.384;2024-03-23T01:50:47;100231.66;;;7.13;100.00
69766;BME280;57039;48.014;21.384;2024-03-23T01:51:49;100222.25;;;7.08;100.00
69766;BME280;57039;48.014;21.384;2024-03-23T01:52:52;100231.69;;;7.11;100.00
69766;BME280;57039;48.014;21.384;2024-03-23T01:53:56;100225.59;;;7.12;100.00
69766;BME280;57039;48.014;21.384;2024-03-23T01:54:58;100226.50;;;7.11;100.00
69766;BME280;57039;48.014;21.384;2024-03-23T01:56:02;100225.09;;;7.04;100.00
69766;BME280;57039;48.014;21.384;2024-03-23T01:57:04;100225.94;;;7.04;100.00
69766;BME280;57039;48.014;21.384;2024-03-23T01:58:06;100215.78;;;6.98;100.00
69766;BME280;57039;48.014;21.384;2024-03-23T01:59:08;100220.72;;;7.04;100.00
69766;BME280;57039;48.014;21.384;2024-03-23T02:00:10;100167.34;;;6.74;100.00
69766;BME280;57039;48.014;21.384;2024-03-23T02:01:13;100220.56;;;7.07;100.00
69766;BME280;57039;48.014;21.384;2024-03-23T02:02:16;100225.78;;;7.07;100.00
69766;BME280;57039;48.014;21.384;2024-03-23T02:03:23;100226.56;;;7.09;100.00
69766;BME280;57039;48.014;21.384;2024-03-23T02:04:28;100233.47;;;7.11;100.00
69766;BME280;57039;48.014;21.384;2024-03-23T02:05:33;100230.03;;;7.10;100.00
69766;BME280;57039;48.014;21.384;2024-03-23T02:06:34;100234.41;;;7.09;100.00
69766;BME280;57039;48.014;21.384;2024-03-23T02:07:40;100234.41;;;7.09;100.00
69766;BME280;57039;48.014;21.384;2024-03-23T02:08:43;100228.47;;;7.06;100.00
69766;BME280;57039;48.014;21.384;2024-03-23T02:09:46;100226.72;;;7.06;100.00
69766;BME280;57039;48.014;21.384;2024-03-23T02:10:48;100224.09;;;7.06;100.00
69766;BME280;57039;48.014;21.384;2024-03-23T02:11:51;100223.37;;;7.03;100.00
69766;BME280;57039;48.014;21.384;2024-03-23T02:12:53;100224.25;;;7.03;100.00
69766;BME280;57039;48.014;21.384;2024-03-23T02:13:55;100226.84;;;7.03;100.00
69766;BME280;57039;48.014;21.384;2024-03-23T02:14:56;100226.84;;;7.03;100.00
69766;BME280;57039;48.014;21.384;2024-03-23T02:15:58;100228.53;;;7.04;100.00
69766;BME280;57039;48.014;21.384;2024-03-23T02:17:00;100222.34;;;7.07;100.00
69766;BME280;57039;48.014;21.384;2024-03-23T02:18:02;100225.97;;;7.03;100.00
69766;BME280;57039;48.014;21.384;2024-03-23T02:19:04;100226.19;;;6.98;100.00
69766;BME280;57039;48.014;21.384;2024-03-23T02:20:06;100221.91;;;6.97;100.00
69766;BME280;57039;48.014;21.384;2024-03-23T02:21:08;100207.56;;;6.87;100.00
69766;BME280;57039;48.014;21.384;2024-03-23T02:22:10;100219.31;;;6.97;100.00
69766;BME280;57039;48.014;21.384;2024-03-23T02:23:16;100217.25;;;7.04;100.00
69766;BME280;57039;48.014;21.384;2024-03-23T02:24:19;100218.94;;;7.05;100.00
69766;BME280;57039;48.014;21.384;2024-03-23T02:25:21;100214.56;;;7.05;100.00
69766;BME280;57039;48.014;21.384;2024-03-23T02:26:23;100211.97;;;7.05;100.00
69766;BME280;57039;48.014;21.384;2024-03-23T02:27:25;100208.59;;;7.03;100.00
69766;BME280;57039;48.014;21.384;2024-03-23T02:28:27;100209.34;;;7.05;100.00
69766;BME280;57039;48.014;21.384;2024-03-23T02:29:29;100166.13;;;6.81;100.00
69766;BME280;57039;48.014;21.384;2024-03-23T02:30:31;100210.28;;;7.04;100.00
69766;BME280;57039;48.014;21.384;2024-03-23T02:31:33;100208.72;;;7.00;100.00
69766;BME280;57039;48.014;21.384;2024-03-23T02:32:34;100210.59;;;6.97;100.00
69766;BME280;57039;48.014;21.384;2024-03-23T02:33:36;100206.47;;;6.93;100.00
69766;BME280;57039;48.014;21.384;2024-03-23T02:34:39;100214.38;;;6.91;100.00
69766;BME280;57039;48.014;21.384;2024-03-23T02:35:41;100207.56;;;6.87;100.00
69766;BME280;57039;48.014;21.384;2024-03-23T02:36:43;100214.56;;;6.86;100.00
69766;BME280;57039;48.014;21.384;2024-03-23T02:37:46;100210.28;;;6.85;100.00
69766;BME280;57039;48.014;21.384;2024-03-23T02:38:48;100207.56;;;6.87;100.00
69766;BME280;57039;48.014;21.384;2024-03-23T02:39:51;100206.59;;;6.90;100.00
69766;BME280;57039;48.014;21.384;2024-03-23T02:40:52;100161.22;;;6.54;100.00
69766;BME280;57039;48.014;21.384;2024-03-23T02:41:54;100214.88;;;6.79;100.00
69766;BME280;57039;48.014;21.384;2024-03-23T02:42:56;100206.31;;;6.77;100.00
69766;BME280;57039;48.014;21.384;2024-03-23T02:43:58;100202.63;;;6.81;100.00
69766;BME280;57039;48.014;21.384;2024-03-23T02:45:00;100210.31;;;6.84;100.00
69766;BME280;57039;48.014;21.384;2024-03-23T02:46:02;100207.94;;;6.79;100.00
69766;BME280;57039;48.014;21.384;2024-03-23T02:47:06;100204.59;;;6.76;100.00
69766;BME280;57039;48.014;21.384;2024-03-23T02:48:08;100206.16;;;6.80;100.00
69766;BME280;57039;48.014;21.384;2024-03-23T02:49:09;100201.94;;;6.77;100.00
69766;BME280;57039;48.014;21.384;2024-03-23T02:50:11;100181.34;;;6.71;100.00
69766;BME280;57039;48.014;21.384;2024-03-23T02:51:13;100116.59;;;6.23;100.00
69766;BME280;57039;48.014;21.384;2024-03-23T02:52:15;100191.41;;;6.79;100.00
69766;BME280;57039;48.014;21.384;2024-03-23T02:53:17;100192.00;;;6.85;100.00
69766;BME280;57039;48.014;21.384;2024-03-23T02:54:20;100192.91;;;6.84;100.00
69766;BME280;57039;48.014;21.384;2024-03-23T02:55:22;100193.88;;;6.82;100.00
69766;BME280;57039;48.014;21.384;2024-03-23T02:56:23;100196.56;;;6.80;100.00
69766;BME280;57039;48.014;21.384;2024-03-23T02:57:25;100194.75;;;6.82;100.00
69766;BME280;57039;48.014;21.384;2024-03-23T02:58:27;100193.00;;;6.83;100.00
69766;BME280;57039;48.014;21.384;2024-03-23T02:59:29;100193.00;;;6.83;100.00
69766;BME280;57039;48.014;21.384;2024-03-23T03:00:31;100189.59;;;6.81;100.00
69766;BME280;57039;48.014;21.384;2024-03-23T03:01:33;100147.09;;;6.60;100.00
69766;BME280;57039;48.014;21.384;2024-03-23T03:02:35;100190.38;;;6.83;100.00
69766;BME280;57039;48.014;21.384;2024-03-23T03:03:37;100186.94;;;6.82;100.00
69766;BME280;57039;48.014;21.384;2024-03-23T03:04:40;100183.47;;;6.82;100.00
69766;BME280;57039;48.014;21.384;2024-03-23T03:05:41;100185.31;;;6.80;100.00
69766;BME280;57039;48.014;21.384;2024-03-23T03:06:47;100183.53;;;6.80;100.00
69766;BME280;57039;48.014;21.384;2024-03-23T03:07:48;100178.53;;;6.76;100.00
69766;BME280;57039;48.014;21.384;2024-03-23T03:08:50;100186.44;;;6.74;100.00
69766;BME280;57039;48.014;21.384;2024-03-23T03:09:53;100188.09;;;6.75;100.00
69766;BME280;57039;48.014;21.384;2024-03-23T03:10:54;100173.59;;;6.70;100.00
69766;BME280;57039;48.014;21.384;2024-03-23T03:11:56;100171.97;;;6.67;100.00
69766;BME280;57039;48.014;21.384;2024-03-23T03:12:58;100171.06;;;6.68;100.00
69766;BME280;57039;48.014;21.384;2024-03-23T03:14:00;100170.13;;;6.69;100.00
69766;BME280;57039;48.014;21.384;2024-03-23T03:15:06;100171.19;;;6.65;100.00
69766;BME280;57039;48.014;21.384;2024-03-23T03:16:11;100172.97;;;6.65;100.00
69766;BME280;57039;48.014;21.384;2024-03-23T03:17:14;100178.19;;;6.65;100.00
69766;BME280;57039;48.014;21.384;2024-03-23T03:18:16;100178.09;;;6.66;100.00
69766;BME280;57039;48.014;21.384;2024-03-23T03:19:18;100176.47;;;6.63;100.00
69766;BME280;57039;48.014;21.384;2024-03-23T03:20:20;100180.03;;;6.61;100.00
69766;BME280;57039;48.014;21.384;2024-03-23T03:21:23;100173.09;;;6.61;100.00
69766;BME280;57039;48.014;21.384;2024-03-23T03:22:25;100166.97;;;6.62;100.00
69766;BME280;57039;48.014;21.384;2024-03-23T03:23:27;100160.38;;;6.54;100.00
69766;BME280;57039;48.014;21.384;2024-03-23T03:24:28;100168.78;;;6.60;100.00
69766;BME280;57039;48.014;21.384;2024-03-23T03:25:30;100136.56;;;6.43;100.00
69766;BME280;57039;48.014;21.384;2024-03-23T03:26:32;100173.00;;;6.63;100.00
69766;BME280;57039;48.014;21.384;2024-03-23T03:27:34;100168.78;;;6.60;100.00
69766;BME280;57039;48.014;21.384;2024-03-23T03:28:36;100168.91;;;6.57;100.00
69766;BME280;57039;48.014;21.384;2024-03-23T03:29:38;100171.59;;;6.56;100.00
69766;BME280;57039;48.014;21.384;2024-03-23T03:30:40;100133.66;;;6.30;100.00
69766;BME280;57039;48.014;21.384;2024-03-23T03:31:45;100158.31;;;6.42;100.00
69766;BME280;57039;48.014;21.384;2024-03-23T03:32:47;100174.53;;;6.48;100.00
69766;BME280;57039;48.014;21.384;2024-03-23T03:33:49;100170.25;;;6.47;100.00
69766;BME280;57039;48.014;21.384;2024-03-23T03:34:52;100164.09;;;6.48;100.00
69766;BME280;57039;48.014;21.384;2024-03-23T03:35:54;100167.78;;;6.44;100.00
69766;BME280;57039;48.014;21.384;2024-03-23T03:36:57;100172.19;;;6.42;100.00
69766;BME280;57039;48.014;21.384;2024-03-23T03:37:59;100166.28;;;6.38;100.00
69766;BME280;57039;48.014;21.384;2024-03-23T03:39:01;100180.84;;;6.43;100.00
69766;BME280;57039;48.014;21.384;2024-03-23T03:40:05;100182.75;;;6.39;100.00
69766;BME280;57039;48.014;21.384;2024-03-23T03:41:10;100173.81;;;6.45;100.00
69766;BME280;57039;48.014;21.384;2024-03-23T03:42:13;100175.59;;;6.44;100.00
69766;BME280;57039;48.014;21.384;2024-03-23T03:43:14;100182.63;;;6.42;100.00
69766;BME280;57039;48.014;21.384;2024-03-23T03:44:16;100170.66;;;6.38;100.00
69766;BME280;57039;48.014;21.384;2024-03-23T03:45:18;100165.31;;;6.41;100.00
69766;BME280;57039;48.014;21.384;2024-03-23T03:46:20;100168.81;;;6.40;100.00
69766;BME280;57039;48.014;21.384;2024-03-23T03:47:22;100169.66;;;6.40;100.00
69766;BME280;57039;48.014;21.384;2024-03-23T03:48:24;100166.19;;;6.40;100.00
69766;BME280;57039;48.014;21.384;2024-03-23T03:49:26;100169.84;;;6.36;100.00
69766;BME280;57039;48.014;21.384;2024-03-23T03:50:28;100172.41;;;6.37;100.00
69766;BME280;57039;48.014;21.384;2024-03-23T03:51:30;100160.28;;;6.36;100.00
69766;BME280;57039;48.014;21.384;2024-03-23T03:52:32;100168.19;;;6.35;100.00
69766;BME280;57039;48.014;21.384;2024-03-23T03:53:33;100165.56;;;6.35;100.00
69766;BME280;57039;48.014;21.384;2024-03-23T03:54:35;100171.81;;;6.31;100.00
69766;BME280;57039;48.014;21.384;2024-03-23T03:55:37;100170.97;;;6.30;100.00
69766;BME280;57039;48.014;21.384;2024-03-23T03:56:39;100170.13;;;6.30;100.00
69766;BME280;57039;48.014;21.384;2024-03-23T03:57:41;100168.44;;;6.29;100.00
69766;BME280;57039;48.014;21.384;2024-03-23T03:58:43;100167.81;;;6.22;100.00
69766;BME280;57039;48.014;21.384;2024-03-23T03:59:45;100173.16;;;6.19;100.00
69766;BME280;57039;48.014;21.384;2024-03-23T04:00:46;100162.31;;;6.09;100.00
69766;BME280;57039;48.014;21.384;2024-03-23T04:01:48;100171.50;;;6.18;100.00
69766;BME280;57039;48.014;21.384;2024-03-23T04:02:50;100170.38;;;6.24;100.00
69766;BME280;57039;48.014;21.384;2024-03-23T04:03:52;100168.97;;;6.16;100.00
69766;BME280;57039;48.014;21.384;2024-03-23T04:04:54;100167.25;;;6.15;100.00
69766;BME280;57039;48.014;21.384;2024-03-23T04:05:55;100171.44;;;6.20;100.00
69766;BME280;57039;48.014;21.384;2024-03-23T04:07:01;100175.00;;;6.17;100.00
69766;BME280;57039;48.014;21.384;2024-03-23T04:08:05;100175.72;;;6.21;100.00
69766;BME280;57039;48.014;21.384;2024-03-23T04:09:07;100175.84;;;6.17;100.00
69766;BME280;57039;48.014;21.384;2024-03-23T04:10:09;100163.53;;;6.21;100.00
69766;BME280;57039;48.014;21.384;2024-03-23T04:11:11;100157.50;;;6.21;100.00
69766;BME280;57039;48.014;21.384;2024-03-23T04:12:16;100165.56;;;6.14;100.00
69766;BME280;57039;48.014;21.384;2024-03-23T04:13:18;100167.25;;;6.15;100.00
69766;BME280;57039;48.014;21.384;2024-03-23T04:14:19;100173.78;;;6.05;100.00
69766;BME280;57039;48.014;21.384;2024-03-23T04:15:21;100169.59;;;6.01;100.00
69766;BME280;57039;48.014;21.384;2024-03-23T04:16:33;100176.37;;;6.05;100.00
69766;BME280;57039;48.014;21.384;2024-03-23T04:17:36;100165.87;;;6.07;100.00
69766;BME280;57039;48.014;21.384;2024-03-23T04:18:37;100168.44;;;6.08;100.00
69766;BME280;57039;48.014;21.384;2024-03-23T04:19:39;100162.44;;;6.06;100.00
69766;BME280;57039;48.014;21.384;2024-03-23T04:20:41;100159.66;;;5.89;100.00
69766;BME280;57039;48.014;21.384;2024-03-23T04:21:43;100173.09;;;6.00;100.00
69766;BME280;57039;48.014;21.384;2024-03-23T04:22:44;100172.97;;;6.03;100.00
69766;BME280;57039;48.014;21.384;2024-03-23T04:23:46;100172.72;;;6.09;100.00
69766;BME280;57039;48.014;21.384;2024-03-23T04:24:48;100167.47;;;6.11;100.00
69766;BME280;57039;48.014;21.384;2024-03-23T04:25:50;100167.50;;;6.09;100.00
69766;BME280;57039;48.014;21.384;2024-03-23T04:26:53;100170.78;;;6.14;100.00
69766;BME280;57039;48.014;21.384;2024-03-23T04:27:55;100172.31;;;6.18;100.00
69766;BME280;57039;48.014;21.384;2024-03-23T04:28:58;100168.75;;;6.21;100.00
69766;BME280;57039;48.014;21.384;2024-03-23T04:30:00;100154.19;;;6.17;100.00
69766;BME280;57039;48.014;21.384;2024-03-23T04:31:06;100164.38;;;6.22;100.00
69766;BME280;57039;48.014;21.384;2024-03-23T04:32:07;100159.84;;;6.27;100.00
69766;BME280;57039;48.014;21.384;2024-03-23T04:33:10;100156.16;;;6.31;100.00
69766;BME280;57039;48.014;21.384;2024-03-23T04:34:12;100154.31;;;6.34;100.00
69766;BME280;57039;48.014;21.384;2024-03-23T04:35:14;100137.59;;;6.20;100.00
69766;BME280;57039;48.014;21.384;2024-03-23T04:36:16;100144.16;;;6.28;100.00
69766;BME280;57039;48.014;21.384;2024-03-23T04:37:18;100156.00;;;6.35;100.00
69766;BME280;57039;48.014;21.384;2024-03-23T04:38:20;100148.31;;;6.32;100.00
69766;BME280;57039;48.014;21.384;2024-03-23T04:39:21;100146.28;;;6.18;100.00
69766;BME280;57039;48.014;21.384;2024-03-23T04:40:23;100103.44;;;5.85;100.00
69766;BME280;57039;48.014;21.384;2024-03-23T04:41:25;100127.56;;;6.10;100.00
69766;BME280;57039;48.014;21.384;2024-03-23T04:42:27;100147.72;;;6.26;100.00
69766;BME280;57039;48.014;21.384;2024-03-23T04:43:30;100146.16;;;6.22;100.00
69766;BME280;57039;48.014;21.384;2024-03-23T04:44:32;100140.75;;;6.26;100.00
69766;BME280;57039;48.014;21.384;2024-03-23T04:45:33;100140.62;;;6.29;100.00
69766;BME280;57039;48.014;21.384;2024-03-23T04:46:35;100127.03;;;6.23;100.00
69766;BME280;57039;48.014;21.384;2024-03-23T04:47:37;100122.94;;;6.17;100.00
69766;BME280;57039;48.014;21.384;2024-03-23T04:48:40;100144.03;;;6.31;100.00
69766;BME280;57039;48.014;21.384;2024-03-23T04:49:42;100142.00;;;6.38;100.00
69766;BME280;57039;48.014;21.384;2024-03-23T04:50:44;100092.13;;;6.06;100.00
69766;BME280;57039;48.014;21.384;2024-03-23T04:51:46;100135.19;;;6.34;100.00
69766;BME280;57039;48.014;21.384;2024-03-23T04:52:48;100136.00;;;6.36;100.00
69766;BME280;57039;48.014;21.384;2024-03-23T04:53:50;100141.78;;;6.43;100.00
69766;BME280;57039;48.014;21.384;2024-03-23T04:54:52;100140.75;;;6.47;100.00
69766;BME280;57039;48.014;21.384;2024-03-23T04:55:57;100136.63;;;6.41;100.00
69766;BME280;57039;48.014;21.384;2024-03-23T04:57:00;100137.66;;;6.37;100.00
69766;BME280;57039;48.014;21.384;2024-03-23T04:58:02;100136.56;;;6.22;100.00
69766;BME280;57039;48.014;21.384;2024-03-23T04:59:05;100136.78;;;6.17;100.00
69766;BME280;57039;48.014;21.384;2024-03-23T05:00:07;100141.87;;;6.21;100.00
69766;BME280;57039;48.014;21.384;2024-03-23T05:01:18;100136.09;;;6.14;100.00
69766;BME280;57039;48.014;21.384;2024-03-23T05:02:20;100140.38;;;6.15;100.00
69766;BME280;57039;48.014;21.384;2024-03-23T05:03:23;100144.91;;;6.10;100.00
69766;BME280;57039;48.014;21.384;2024-03-23T05:04:26;100143.09;;;6.12;100.00
69766;BME280;57039;48.014;21.384;2024-03-23T05:05:28;100141.16;;;6.17;100.00
69766;BME280;57039;48.014;21.384;2024-03-23T05:06:30;100140.62;;;6.09;100.00
69766;BME280;57039;48.014;21.384;2024-03-23T05:07:32;100148.13;;;6.16;100.00
69766;BME280;57039;48.014;21.384;2024-03-23T05:08:34;100146.22;;;6.20;100.00
69766;BME280;57039;48.014;21.384;2024-03-23T05:09:36;100142.16;;;6.33;100.00
69766;BME280;57039;48.014;21.384;2024-03-23T05:10:38;100144.66;;;6.36;100.00
69766;BME280;57039;48.014;21.384;2024-03-23T05:11:41;100146.34;;;6.37;100.00
69766;BME280;57039;48.014;21.384;2024-03-23T05:12:46;100134.75;;;6.45;100.00
69766;BME280;57039;48.014;21.384;2024-03-23T05:13:48;100137.91;;;6.51;100.00
69766;BME280;57039;48.014;21.384;2024-03-23T05:14:50;100139.53;;;6.54;100.00
69766;BME280;57039;48.014;21.384;2024-03-23T05:15:53;100142.41;;;6.48;100.00
69766;BME280;57039;48.014;21.384;2024-03-23T05:16:56;100133.25;;;6.39;100.00
69766;BME280;57039;48.014;21.384;2024-03-23T05:17:58;100128.56;;;6.27;100.00
69766;BME280;57039;48.014;21.384;2024-03-23T05:19:00;100142.03;;;6.36;100.00
69766;BME280;57039;48.014;21.384;2024-03-23T05:20:03;100144.78;;;6.33;100.00
69766;BME280;57039;48.014;21.384;2024-03-23T05:21:04;100140.22;;;6.38;100.00
69766;BME280;57039;48.014;21.384;2024-03-23T05:22:06;100138.53;;;6.37;100.00
69766;BME280;57039;48.014;21.384;2024-03-23T05:23:08;100137.66;;;6.37;100.00
69766;BME280;57039;48.014;21.384;2024-03-23T05:24:10;100144.59;;;6.38;100.00
69766;BME280;57039;48.014;21.384;2024-03-23T05:25:13;100137.91;;;6.51;100.00
69766;BME280;57039;48.014;21.384;2024-03-23T05:26:15;100138.06;;;6.48;100.00
69766;BME280;57039;48.014;21.384;2024-03-23T05:27:17;100141.84;;;6.41;100.00
69766;BME280;57039;48.014;21.384;2024-03-23T05:28:19;100129.59;;;6.43;100.00
69766;BME280;57039;48.014;21.384;2024-03-23T05:29:21;100136.38;;;6.47;100.00
69766;BME280;57039;48.014;21.384;2024-03-23T05:30:23;100142.81;;;6.38;100.00
69766;BME280;57039;48.014;21.384;2024-03-23T05:31:26;100148.16;;;6.35;100.00
69766;BME280;57039;48.014;21.384;2024-03-23T05:32:28;100142.75;;;6.40;100.00
69766;BME280;57039;48.014;21.384;2024-03-23T05:33:30;100143.97;;;6.52;100.00
69766;BME280;57039;48.014;21.384;2024-03-23T05:34:32;100146.78;;;6.47;100.00
69766;BME280;57039;48.014;21.384;2024-03-23T05:35:34;100140.66;;;6.48;100.00
69766;BME280;57039;48.014;21.384;2024-03-23T05:36:36;100144.06;;;6.50;100.00
69766;BME280;57039;48.014;21.384;2024-03-23T05:37:38;100125.69;;;6.33;100.00
69766;BME280;57039;48.014;21.384;2024-03-23T05:38:40;100134.41;;;6.52;100.00
69766;BME280;57039;48.014;21.384;2024-03-23T05:39:42;100140.19;;;6.59;100.00
69766;BME280;57039;48.014;21.384;2024-03-23T05:40:53;100140.19;;;6.59;100.00
69766;BME280;57039;48.014;21.384;2024-03-23T05:41:55;100132.56;;;6.54;100.00
69766;BME280;57039;48.014;21.384;2024-03-23T05:42:56;100139.22;;;6.61;100.00
69766;BME280;57039;48.014;21.384;2024-03-23T05:43:58;100131.87;;;6.70;100.00
69766;BME280;57039;48.014;21.384;2024-03-23T05:45:00;100049.88;;;6.20;100.00
69766;BME280;57039;48.014;21.384;2024-03-23T05:46:03;100138.84;;;6.69;100.00
69766;BME280;57039;48.014;21.384;2024-03-23T05:47:06;100131.91;;;6.89;100.00
69766;BME280;57039;48.014;21.384;2024-03-23T05:48:08;100130.78;;;6.94;100.00
69766;BME280;57039;48.014;21.384;2024-03-23T05:49:09;100122.59;;;6.83;100.00
69766;BME280;57039;48.014;21.384;2024-03-23T05:50:11;100140.19;;;6.78;100.00
69766;BME280;57039;48.014;21.384;2024-03-23T05:51:14;100143.03;;;6.73;100.00
69766;BME280;57039;48.014;21.384;2024-03-23T05:52:17;100142.25;;;6.90;100.00
69766;BME280;57039;48.014;21.384;2024-03-23T05:53:19;100136.88;;;6.93;100.00
69766;BME280;57039;48.014;21.384;2024-03-23T05:54:22;100137.31;;;7.03;100.00
69766;BME280;57039;48.014;21.384;2024-03-23T05:55:23;100137.78;;;7.11;100.00
69766;BME280;57039;48.014;21.384;2024-03-23T05:56:26;100142.97;;;7.13;100.00
69766;BME280;57039;48.014;21.384;2024-03-23T05:57:28;100139.22;;;7.18;100.00
69766;BME280;57039;48.014;21.384;2024-03-23T05:58:30;100138.63;;;7.12;100.00
69766;BME280;57039;48.014;21.384;2024-03-23T05:59:33;100137.66;;;7.14;100.00
69766;BME280;57039;48.014;21.384;2024-03-23T06:00:34;100137.75;;;7.13;100.00
69766;BME280;57039;48.014;21.384;2024-03-23T06:01:37;100100.66;;;6.87;100.00
69766;BME280;57039;48.014;21.384;2024-03-23T06:02:40;100131.25;;;7.21;100.00
69766;BME280;57039;48.014;21.384;2024-03-23T06:03:42;100135.87;;;7.34;100.00
69766;BME280;57039;48.014;21.384;2024-03-23T06:04:46;100129.13;;;7.47;100.00
69766;BME280;57039;48.014;21.384;2024-03-23T06:05:47;100125.75;;;7.45;100.00
69766;BME280;57039;48.014;21.384;2024-03-23T06:06:51;100129.97;;;7.47;100.00
69766;BME280;57039;48.014;21.384;2024-03-23T06:07:54;100127.59;;;7.43;100.00
69766;BME280;57039;48.014;21.384;2024-03-23T06:08:56;100129.09;;;7.48;100.00
69766;BME280;57039;48.014;21.384;2024-03-23T06:09:58;100128.16;;;7.49;100.00
69766;BME280;57039;48.014;21.384;2024-03-23T06:11:00;100128.00;;;7.52;100.00
69766;BME280;57039;48.014;21.384;2024-03-23T06:12:03;100130.47;;;7.55;100.00
69766;BME280;57039;48.014;21.384;2024-03-23T06:13:05;100123.62;;;7.53;100.00
69766;BME280;57039;48.014;21.384;2024-03-23T06:14:06;100124.16;;;7.60;100.00
69766;BME280;57039;48.014;21.384;2024-03-23T06:15:08;100126.56;;;7.64;100.00
69766;BME280;57039;48.014;21.384;2024-03-23T06:16:12;100123.75;;;7.69;100.00